Clearmont, WY (82835)

5:40 PM MDT on October 24, 2014 (GMT -0600)
Merlin Ranch | Change Station
CLOSE
Current Station
Personal Weather Station
Location: Buffalo, WY
Elevation: 4364 ft
Nearby Weather Stations

Elev 4364 ft 44.42 °N, 106.59 °W | Updated 1 minute ago

Clear
Clear
63.8 °F
Feels Like 63.8 °F
N
2.0
Wind Variable Wind from NNE
Gusts 10.0 mph

Today
High -- | Low -- °F
--% Chance of Precip.
Yesterday
High -- | Low -- °F
Precip. -- in
7:32 AM 6:06 PM
New Moon, 1% visible
Pressure 30.03 in
Visibility 10.0 miles
Clouds Clear
Dew Point 37 °F
Humidity 37%
Rainfall 0.00 in
Snow Depth Not available.
UV 0.0 out of 12
Pollen 1.60 out of 12
Air Quality Not available.
Flu Activity Sporadic
METAR KSHR 242253Z AUTO 36009KT 10SM CLR 17/01 A3005 RMK AO2 SLP169 T01670011 TSNO

More Conditions Fewer Conditions

Pressure 30.03 in
Visibility 10.0 miles
Clouds Clear
Dew Point 37 °F
Humidity 37%
Rainfall 0.00 in
Snow Depth Not available.
UV 0.0 out of 12
Pollen 1.60 out of 12
Air Quality Not available.
Flu Activity Sporadic
METAR KSHR 242253Z AUTO 36009KT 10SM CLR 17/01 A3005 RMK AO2 SLP169 T01670011 TSNO

More Conditions Fewer Conditions

10-Day Weather Forecast

Almanac

Astronomy

Oct. 24, 2014 Rise Set
Actual Time 7:32 AM MDT 6:06 PM MDT
Civil Twilight 7:02 AM MDT 6:36 PM MDT
Nautical Twilight 6:28 AM MDT 7:10 PM MDT
Astronomical Twilight 5:55 AM MDT 7:43 PM MDT
Moon 8:16 AM MDT 6:46 PM MDT
Length of Visible Light 11h 33m
Length of Day
10h 33m
Tomorrow will be 2m 52s shorter.
New Moon, 1% of the Moon is Illuminated
Today
New Moon
Oct 30
First Quarter
Nov 6
Full
Nov 14
Last Quarter
Nov 22
New

Today's Extremes

State Highs State Lows

Community

WunderPhotos

Upload Photos

1,764,713 photos uploaded!

Nearby

Snow Depth

Station Depth Elevation
Laprele Creek 0 in 8375 ft
Windy Peak 0 in 7900 ft
Sylvan Lake 0 in 8420 ft
Gunsight Pass 1 in 9820 ft
Big Sandy Opening 0 in 9080 ft

Earthquake Activity

City Distance Mag. Time & Date
No recent earthquake activity has been reported nearby.
Minimum magnitude displayed is 2.5.

Coastal Water Temperatures

Place Temperature
No Stations Reporting

Nearby Weather Stations